createdAt,value
2022-10-19T00:00:40.482Z,18.15
2022-10-19T00:02:43.054Z,13.55
2022-10-19T00:04:45.727Z,16.55
2022-10-19T00:06:48.350Z,16.73
2022-10-19T00:08:50.944Z,11.80
2022-10-19T00:10:53.519Z,20.45
2022-10-19T00:12:56.239Z,18.45
2022-10-19T00:14:59.042Z,12.27
2022-10-19T00:17:03.024Z,18.92
2022-10-19T00:19:09.036Z,20.00
2022-10-19T00:21:13.248Z,19.50
2022-10-19T00:23:16.177Z,22.02
2022-10-19T00:25:18.984Z,15.70
2022-10-19T00:27:21.570Z,18.88
2022-10-19T00:29:24.146Z,24.20
2022-10-19T00:31:27.685Z,38.13
2022-10-19T00:33:31.666Z,34.70
2022-10-19T00:35:34.248Z,19.30
2022-10-19T00:37:36.859Z,19.63
2022-10-19T00:39:39.524Z,15.77
2022-10-19T00:41:43.463Z,17.73
2022-10-19T00:43:55.189Z,15.57
2022-10-19T00:45:57.791Z,13.07
2022-10-19T00:48:00.413Z,16.90
2022-10-19T00:50:04.912Z,33.40
2022-10-19T00:52:10.535Z,21.77
2022-10-19T00:54:13.654Z,17.15
2022-10-19T00:56:17.890Z,20.63
2022-10-19T00:58:21.590Z,14.80
2022-10-19T01:00:24.209Z,14.50
2022-10-19T01:02:26.999Z,16.27
2022-10-19T01:04:31.648Z,14.43
2022-10-19T01:06:36.915Z,14.35
2022-10-19T01:08:39.552Z,13.02
2022-10-19T01:10:51.831Z,15.50
2022-10-19T01:13:06.133Z,11.95
2022-10-19T01:15:21.434Z,15.88
2022-10-19T01:17:32.312Z,14.82
2022-10-19T01:20:08.809Z,18.88
2022-10-19T01:22:26.632Z,16.70
2022-10-19T01:25:07.151Z,15.80
2022-10-19T01:27:36.340Z,46.50
2022-10-19T01:29:57.373Z,16.38
2022-10-19T01:32:06.906Z,16.98
2022-10-19T01:34:17.671Z,32.05
2022-10-19T01:36:26.509Z,28.60
2022-10-19T01:38:35.186Z,20.05
2022-10-19T01:40:43.720Z,33.15
2022-10-19T01:42:52.657Z,31.90
2022-10-19T01:45:02.948Z,38.92
2022-10-19T01:47:08.064Z,26.48
2022-10-19T01:49:17.140Z,25.45
2022-10-19T01:51:24.151Z,35.38
2022-10-19T01:53:29.454Z,21.92
2022-10-19T01:55:33.267Z,20.35
2022-10-19T01:57:40.935Z,23.67
2022-10-19T01:59:45.016Z,14.65
2022-10-19T02:01:52.307Z,11.70
2022-10-19T02:03:55.859Z,12.63
2022-10-19T02:05:59.465Z,14.15
2022-10-19T02:08:05.501Z,10.98
2022-10-19T02:10:09.054Z,12.73
2022-10-19T02:12:13.180Z,14.38
2022-10-19T02:14:19.357Z,12.75
2022-10-19T02:16:27.091Z,12.52
2022-10-19T02:18:35.287Z,12.05
2022-10-19T02:20:38.417Z,11.05
2022-10-19T02:22:41.379Z,16.90
2022-10-19T02:24:43.947Z,9.90
2022-10-19T02:26:47.134Z,18.98
2022-10-19T02:28:50.457Z,11.27
2022-10-19T02:30:53.151Z,9.98
2022-10-19T02:32:55.910Z,7.15
2022-10-19T02:34:59.826Z,12.70
2022-10-19T02:37:02.570Z,14.95
2022-10-19T02:39:05.712Z,12.30
2022-10-19T02:41:12.973Z,11.43
2022-10-19T02:43:19.262Z,12.07
2022-10-19T02:45:26.832Z,10.63
2022-10-19T02:47:35.676Z,10.98
2022-10-19T02:49:39.715Z,11.85
2022-10-19T02:52:00.795Z,11.07
2022-10-19T02:54:05.407Z,8.53
2022-10-19T02:56:10.042Z,13.05
2022-10-19T02:58:12.682Z,8.43
2022-10-19T03:00:15.420Z,8.85
2022-10-19T03:02:19.397Z,12.05
2022-10-19T03:04:21.996Z,11.40
2022-10-19T03:06:24.575Z,9.20
2022-10-19T03:08:28.551Z,9.57
2022-10-19T03:10:31.162Z,7.53
2022-10-19T03:12:33.747Z,7.50
2022-10-19T03:14:36.337Z,7.82
2022-10-19T03:16:38.984Z,16.23
2022-10-19T03:18:41.901Z,8.60
2022-10-19T03:20:44.489Z,10.20
2022-10-19T03:22:47.109Z,12.77
2022-10-19T03:24:51.099Z,15.23
2022-10-19T03:26:53.644Z,11.52
2022-10-19T03:28:56.297Z,14.43
2022-10-19T03:30:59.060Z,10.95
2022-10-19T03:33:01.604Z,9.90
2022-10-19T03:35:04.392Z,8.85
2022-10-19T03:37:08.646Z,14.38
2022-10-19T03:39:13.982Z,8.65
2022-10-19T03:41:17.945Z,11.98
2022-10-19T03:43:20.520Z,14.52
2022-10-19T03:45:23.129Z,7.88
2022-10-19T03:47:25.792Z,12.60
2022-10-19T03:49:28.428Z,11.75
2022-10-19T03:51:32.958Z,9.35
2022-10-19T03:53:35.914Z,15.20
2022-10-19T03:55:38.498Z,8.65
2022-10-19T03:57:42.605Z,12.60
2022-10-19T03:59:45.203Z,8.07
2022-10-19T04:01:47.752Z,8.07
2022-10-19T04:03:54.416Z,9.32
2022-10-19T04:06:03.617Z,8.52
2022-10-19T04:08:06.870Z,6.72
2022-10-19T04:10:09.858Z,8.15
2022-10-19T04:12:12.419Z,7.57
2022-10-19T04:14:27.036Z,11.52
2022-10-19T04:16:35.648Z,7.78
2022-10-19T04:18:38.248Z,6.07
2022-10-19T04:20:42.750Z,8.07
2022-10-19T04:22:45.348Z,6.55
2022-10-19T04:24:47.912Z,7.97
2022-10-19T04:26:52.988Z,10.52
2022-10-19T04:28:57.506Z,8.93
2022-10-19T04:31:05.043Z,8.68
2022-10-19T04:33:07.618Z,14.00
2022-10-19T04:35:10.536Z,12.52
2022-10-19T04:37:13.118Z,11.32
2022-10-19T04:39:15.707Z,11.13
2022-10-19T04:41:20.002Z,22.90
2022-10-19T04:43:22.734Z,7.00
2022-10-19T04:45:25.386Z,14.30
2022-10-19T04:47:29.848Z,7.03
2022-10-19T04:49:32.432Z,8.55
2022-10-19T04:51:35.942Z,5.40
2022-10-19T04:53:40.772Z,6.90
2022-10-19T04:55:43.534Z,9.43
2022-10-19T04:57:46.187Z,7.75
2022-10-19T04:59:48.809Z,5.40
2022-10-19T05:01:51.403Z,8.90
2022-10-19T05:06:05.328Z,6.10
2022-10-19T05:08:08.253Z,10.07
2022-10-19T05:10:12.043Z,6.40
2022-10-19T05:12:14.732Z,4.68
2022-10-19T05:14:17.441Z,5.68
2022-10-19T05:16:22.677Z,5.03
2022-10-19T05:18:25.356Z,8.43
2022-10-19T05:20:29.357Z,9.13
2022-10-19T05:22:31.988Z,8.82
2022-10-19T05:24:34.613Z,8.10
2022-10-19T05:26:37.169Z,9.95
2022-10-19T05:28:39.894Z,15.65
2022-10-19T05:30:46.652Z,10.43
2022-10-19T05:32:51.551Z,8.15
2022-10-19T05:34:54.326Z,10.15
2022-10-19T05:36:58.250Z,20.70
2022-10-19T05:39:04.554Z,13.30
2022-10-19T05:41:07.776Z,12.15
2022-10-19T05:43:10.455Z,16.60
2022-10-19T05:45:13.070Z,12.85
2022-10-19T05:47:15.786Z,11.30
2022-10-19T05:49:20.340Z,12.73
2022-10-19T05:51:24.140Z,14.85
2022-10-19T05:53:28.734Z,11.43
2022-10-19T05:55:35.878Z,12.15
2022-10-19T05:57:38.438Z,11.30
2022-10-19T05:59:41.059Z,14.20
2022-10-19T06:01:43.703Z,10.15
2022-10-19T06:03:46.694Z,10.30
2022-10-19T06:05:49.866Z,25.40
2022-10-19T06:07:52.434Z,8.77
2022-10-19T06:09:56.311Z,11.05
2022-10-19T06:11:58.897Z,8.50
2022-10-19T06:14:02.857Z,11.85
2022-10-19T06:16:06.674Z,11.63
2022-10-19T06:18:10.584Z,8.75
2022-10-19T06:20:13.328Z,7.35
2022-10-19T06:22:15.971Z,7.20
2022-10-19T06:24:18.541Z,9.32
2022-10-19T06:26:22.899Z,10.77
2022-10-19T06:28:25.517Z,8.65
2022-10-19T06:30:28.573Z,9.57
2022-10-19T06:32:32.325Z,9.48
2022-10-19T06:34:34.938Z,9.20
2022-10-19T06:36:37.533Z,10.07
2022-10-19T06:38:40.701Z,10.85
2022-10-19T06:40:43.352Z,9.52
2022-10-19T06:42:47.338Z,9.48
2022-10-19T06:44:49.914Z,8.68
2022-10-19T06:46:52.511Z,7.70
2022-10-19T06:48:57.036Z,9.55
2022-10-19T06:51:00.705Z,9.23
2022-10-19T06:53:03.331Z,8.77
2022-10-19T06:55:06.926Z,8.60
2022-10-19T06:57:09.460Z,8.40
2022-10-19T06:59:14.828Z,11.23
2022-10-19T07:01:17.667Z,8.00
2022-10-19T07:03:20.308Z,8.15
2022-10-19T07:05:23.301Z,9.55
2022-10-19T07:07:25.896Z,10.40
2022-10-19T07:09:28.646Z,10.25
2022-10-19T07:11:31.327Z,9.13
2022-10-19T07:13:34.447Z,8.93
2022-10-19T07:15:38.423Z,13.15
2022-10-19T07:17:41.037Z,9.50
2022-10-19T07:19:43.665Z,11.52
2022-10-19T07:21:46.342Z,8.63
2022-10-19T07:23:49.556Z,10.88
2022-10-19T07:25:53.253Z,12.18
2022-10-19T07:27:55.836Z,8.63
2022-10-19T07:29:58.433Z,7.45
2022-10-19T07:32:02.359Z,9.88
2022-10-19T07:34:06.306Z,8.15
2022-10-19T07:36:10.783Z,9.13
2022-10-19T07:38:13.429Z,8.90
2022-10-19T07:40:16.200Z,8.60
2022-10-19T07:42:18.810Z,9.75
2022-10-19T07:44:21.466Z,8.25
2022-10-19T07:46:26.349Z,9.68
2022-10-19T07:48:30.446Z,8.10
2022-10-19T07:50:33.017Z,9.27
2022-10-19T07:52:36.986Z,7.93
2022-10-19T07:54:39.874Z,9.40
2022-10-19T07:56:42.464Z,14.38
2022-10-19T07:58:45.650Z,9.77
2022-10-19T08:00:48.395Z,9.77
2022-10-19T08:03:05.074Z,13.70
2022-10-19T08:05:15.414Z,9.52
2022-10-19T08:07:18.489Z,12.68
2022-10-19T08:09:50.891Z,12.63
2022-10-19T08:11:43.643Z,13.35
2022-10-19T08:13:46.500Z,15.63
2022-10-19T08:15:49.116Z,11.40
2022-10-19T08:17:51.662Z,12.65
2022-10-19T08:19:54.323Z,12.38
2022-10-19T08:21:58.443Z,9.68
2022-10-19T08:24:03.760Z,11.75
2022-10-19T08:26:06.782Z,10.68
2022-10-19T08:28:11.967Z,10.68
2022-10-19T08:30:14.665Z,13.75
2022-10-19T08:32:17.253Z,10.38
2022-10-19T08:34:19.914Z,13.13
2022-10-19T08:36:22.537Z,14.55
2022-10-19T08:38:26.509Z,14.80
2022-10-19T08:40:31.102Z,10.55
2022-10-19T08:42:51.494Z,16.77
2022-10-19T08:45:04.136Z,15.77
2022-10-19T08:47:17.541Z,13.20
2022-10-19T08:49:24.595Z,11.02
2022-10-19T08:51:28.336Z,13.50
2022-10-19T08:53:41.309Z,17.02
2022-10-19T08:55:58.640Z,14.85
2022-10-19T08:58:17.330Z,16.15
2022-10-19T09:00:29.510Z,15.82
2022-10-19T09:02:44.850Z,14.35
2022-10-19T09:04:51.387Z,13.32
2022-10-19T09:07:18.082Z,19.13
2022-10-19T09:09:22.280Z,16.48
2022-10-19T09:11:29.209Z,18.60
2022-10-19T09:13:41.628Z,13.57
2022-10-19T09:15:56.121Z,16.85
2022-10-19T09:17:58.853Z,15.40
2022-10-19T09:20:14.601Z,14.02
2022-10-19T09:22:21.388Z,13.57
2022-10-19T09:24:44.105Z,13.68
2022-10-19T09:26:53.568Z,12.10
2022-10-19T09:28:59.798Z,13.98
2022-10-19T09:31:03.317Z,12.95
2022-10-19T09:33:15.408Z,15.98
2022-10-19T09:35:27.778Z,15.15
2022-10-19T09:37:32.166Z,16.30
2022-10-19T09:39:36.336Z,15.20
2022-10-19T09:41:46.965Z,15.95
2022-10-19T09:43:54.075Z,16.27
2022-10-19T09:46:09.654Z,17.35
2022-10-19T09:48:27.314Z,16.65
2022-10-19T09:50:31.766Z,21.20
2022-10-19T09:52:38.085Z,31.80
2022-10-19T09:54:42.156Z,17.05
2022-10-19T09:56:54.563Z,14.48
2022-10-19T09:58:59.055Z,18.80
2022-10-19T10:01:03.778Z,16.10
2022-10-19T10:03:07.570Z,20.25
2022-10-19T10:05:15.976Z,17.30
2022-10-19T10:07:19.671Z,18.52
2022-10-19T10:09:27.196Z,18.38
2022-10-19T10:11:33.945Z,21.27
2022-10-19T10:13:39.319Z,22.80
2022-10-19T10:15:45.349Z,18.58
2022-10-19T10:17:49.591Z,18.80
2022-10-19T10:20:03.915Z,25.58
2022-10-19T10:22:06.532Z,18.02
2022-10-19T10:24:20.959Z,18.48
2022-10-19T10:26:26.881Z,17.90
2022-10-19T10:28:31.870Z,15.05
2022-10-19T10:30:37.770Z,16.65
2022-10-19T10:32:48.032Z,19.73
2022-10-19T10:35:01.671Z,16.15
2022-10-19T10:37:06.843Z,16.10
2022-10-19T10:39:16.917Z,14.10
2022-10-19T10:41:23.936Z,10.23
2022-10-19T10:43:32.800Z,9.68
2022-10-19T10:45:39.885Z,11.48
2022-10-19T10:47:48.118Z,8.00
2022-10-19T10:49:57.679Z,14.25
2022-10-19T10:52:05.455Z,11.95
2022-10-19T10:54:16.836Z,7.93
2022-10-19T10:56:25.643Z,11.25
2022-10-19T10:58:43.272Z,10.98
2022-10-19T11:00:46.706Z,8.07
2022-10-19T11:02:55.322Z,10.50
2022-10-19T11:05:02.769Z,8.73
2022-10-19T11:07:16.771Z,8.27
2022-10-19T11:09:27.045Z,7.85
2022-10-19T11:11:36.217Z,8.70
2022-10-19T11:13:46.028Z,9.63
2022-10-19T11:15:54.837Z,12.93
2022-10-19T11:18:07.258Z,9.70
2022-10-19T11:20:15.797Z,11.77
2022-10-19T11:22:26.387Z,17.15
2022-10-19T11:24:41.897Z,9.55
2022-10-19T11:27:00.535Z,12.93
2022-10-19T11:29:17.211Z,9.45
2022-10-19T11:31:23.366Z,14.93
2022-10-19T11:35:53.035Z,10.07
2022-10-19T11:38:19.542Z,10.90
2022-10-19T11:40:28.862Z,8.93
2022-10-19T11:45:07.101Z,8.02
2022-10-19T11:47:29.189Z,8.38
2022-10-19T11:49:43.439Z,12.20
2022-10-19T11:51:53.430Z,14.82
2022-10-19T11:54:12.363Z,11.38
2022-10-19T11:56:39.261Z,9.53
2022-10-19T11:59:03.902Z,10.93
2022-10-19T12:01:17.130Z,10.88
2022-10-19T12:03:37.207Z,8.27
2022-10-19T12:05:54.781Z,8.73
2022-10-19T12:08:15.264Z,9.18
2022-10-19T12:10:25.837Z,8.52
2022-10-19T12:12:33.514Z,12.43
2022-10-19T12:14:40.103Z,8.75
2022-10-19T12:16:46.849Z,14.75
2022-10-19T12:18:52.633Z,12.68
2022-10-19T12:20:59.656Z,8.27
2022-10-19T12:23:05.941Z,9.73
2022-10-19T12:25:13.590Z,8.05
2022-10-19T12:27:18.393Z,10.60
2022-10-19T12:29:24.556Z,11.80
2022-10-19T12:31:29.356Z,10.07
2022-10-19T12:33:45.475Z,7.90
2022-10-19T12:36:13.782Z,8.90
2022-10-19T12:38:27.231Z,12.20
2022-10-19T12:40:38.628Z,6.35
2022-10-19T12:42:51.840Z,8.75
2022-10-19T12:45:16.873Z,13.48
2022-10-19T12:47:21.625Z,10.15
2022-10-19T12:49:45.145Z,10.38
2022-10-19T12:51:50.366Z,10.15
2022-10-19T12:54:07.854Z,7.93
2022-10-19T12:56:16.355Z,12.23
2022-10-19T12:58:22.636Z,8.43
2022-10-19T13:00:27.773Z,6.97
2022-10-19T13:04:54.022Z,10.55
2022-10-19T13:07:03.546Z,9.57
2022-10-19T13:09:08.878Z,9.65
2022-10-19T13:11:15.105Z,7.95
2022-10-19T13:13:54.319Z,14.50
2022-10-19T13:15:57.463Z,12.23
2022-10-19T13:18:00.161Z,9.77
2022-10-19T13:22:51.502Z,7.03
2022-10-19T13:25:32.613Z,9.25
2022-10-19T13:27:39.681Z,7.40
2022-10-19T13:29:44.791Z,9.98
2022-10-19T13:31:47.425Z,9.52
2022-10-19T13:33:51.769Z,8.10
2022-10-19T13:36:07.906Z,8.43
2022-10-19T13:38:27.412Z,12.00
2022-10-19T13:40:31.322Z,8.55
2022-10-19T13:42:34.344Z,8.43
2022-10-19T13:44:39.454Z,11.95
2022-10-19T13:46:54.167Z,9.48
2022-10-19T13:49:32.493Z,8.50
2022-10-19T13:51:49.714Z,11.15
2022-10-19T13:54:02.255Z,10.60
2022-10-19T13:56:25.303Z,8.85
2022-10-19T13:59:07.497Z,7.15
2022-10-19T14:01:24.900Z,10.50
2022-10-19T14:03:43.559Z,11.77
2022-10-19T14:05:58.957Z,9.32
2022-10-19T14:08:17.463Z,12.07
2022-10-19T14:10:28.273Z,9.70
2022-10-19T14:12:40.542Z,7.93
2022-10-19T14:14:45.383Z,7.60
2022-10-19T14:16:50.842Z,9.68
2022-10-19T14:18:55.743Z,10.23
2022-10-19T14:20:59.457Z,10.35
2022-10-19T14:23:19.037Z,8.32
2022-10-19T14:25:26.881Z,9.48
2022-10-19T14:27:31.425Z,14.68
2022-10-19T14:29:43.979Z,8.13
2022-10-19T14:31:46.893Z,9.75
2022-10-19T14:33:53.609Z,9.65
2022-10-19T14:35:56.798Z,8.73
2022-10-19T14:38:00.143Z,10.10
2022-10-19T14:40:07.089Z,11.63
2022-10-19T14:42:11.852Z,13.38
2022-10-19T14:44:33.772Z,16.98
2022-10-19T14:48:41.727Z,15.85
2022-10-19T14:50:49.098Z,12.40
2022-10-19T14:52:59.428Z,13.80
2022-10-19T14:55:07.585Z,10.13
2022-10-19T14:57:15.673Z,9.90
2022-10-19T14:59:25.736Z,8.93
2022-10-19T15:01:28.369Z,12.25
2022-10-19T15:03:32.167Z,11.27
2022-10-19T15:05:40.592Z,10.88
2022-10-19T15:07:44.566Z,14.18
2022-10-19T15:09:55.353Z,8.43
2022-10-19T15:12:06.041Z,10.90
2022-10-19T15:14:15.127Z,9.90
2022-10-19T15:16:45.654Z,10.88
2022-10-19T15:18:50.054Z,7.38
2022-10-19T15:21:12.600Z,10.57
2022-10-19T15:23:36.060Z,7.72
2022-10-19T15:25:38.714Z,9.40
2022-10-19T15:27:45.462Z,9.52
2022-10-19T15:29:57.881Z,9.50
2022-10-19T15:32:15.283Z,8.23
2022-10-19T15:34:25.243Z,12.77
2022-10-19T15:36:29.905Z,7.63
2022-10-19T15:38:34.652Z,9.20
2022-10-19T15:40:39.241Z,10.18
2022-10-19T15:42:44.468Z,11.75
2022-10-19T15:44:47.164Z,8.30
2022-10-19T15:47:19.381Z,8.38
2022-10-19T15:49:53.859Z,12.25
2022-10-19T15:51:56.497Z,14.48
2022-10-19T15:54:01.135Z,9.85
2022-10-19T15:56:06.924Z,11.77
2022-10-19T15:58:11.533Z,14.70
2022-10-19T16:00:17.019Z,11.07
2022-10-19T16:02:20.957Z,11.23
2022-10-19T16:04:23.530Z,10.10
2022-10-19T16:06:29.029Z,10.63
2022-10-19T16:08:31.648Z,7.85
2022-10-19T16:10:34.289Z,16.63
2022-10-19T16:12:36.904Z,9.88
2022-10-19T16:14:39.444Z,8.57
2022-10-19T16:16:42.940Z,9.55
2022-10-19T16:18:47.507Z,9.63
2022-10-19T16:20:50.081Z,13.15
2022-10-19T16:22:52.756Z,9.18
2022-10-19T16:24:55.396Z,8.23
2022-10-19T16:26:58.060Z,9.10
2022-10-19T16:29:01.619Z,9.27
2022-10-19T16:31:04.215Z,7.95
2022-10-19T16:33:06.912Z,11.38
2022-10-19T16:35:11.625Z,8.93
2022-10-19T16:37:14.222Z,8.10
2022-10-19T16:39:16.819Z,8.82
2022-10-19T16:41:19.357Z,12.93
2022-10-19T16:43:21.958Z,8.95
2022-10-19T16:45:24.661Z,15.80
2022-10-19T16:47:27.369Z,10.52
2022-10-19T16:49:30.233Z,7.93
2022-10-19T16:51:37.025Z,12.60
2022-10-19T16:53:39.714Z,11.50
2022-10-19T16:55:42.363Z,13.13
2022-10-19T16:57:44.981Z,11.00
2022-10-19T16:59:51.048Z,10.57
2022-10-19T17:01:53.786Z,14.48
2022-10-19T17:03:56.792Z,13.07
2022-10-19T17:05:59.508Z,14.48
2022-10-19T17:08:05.163Z,11.77
2022-10-19T17:10:08.155Z,13.57
2022-10-19T17:12:11.504Z,13.25
2022-10-19T17:14:14.252Z,10.30
2022-10-19T17:16:18.437Z,9.98
2022-10-19T17:18:21.028Z,16.05
2022-10-19T17:20:23.771Z,11.18
2022-10-19T17:22:26.890Z,10.07
2022-10-19T17:24:31.080Z,13.30
2022-10-19T17:26:35.976Z,13.65
2022-10-19T17:28:39.831Z,13.20
2022-10-19T17:30:42.489Z,12.13
2022-10-19T17:32:45.143Z,8.88
2022-10-19T17:34:47.755Z,9.57
2022-10-19T17:36:50.396Z,12.05
2022-10-19T17:38:53.951Z,13.85
2022-10-19T17:41:01.826Z,11.48
2022-10-19T17:43:04.446Z,10.77
2022-10-19T17:45:08.001Z,11.90
2022-10-19T17:47:10.742Z,16.42
2022-10-19T17:49:16.409Z,12.25
2022-10-19T17:51:20.853Z,14.95
2022-10-19T17:53:26.656Z,15.15
2022-10-19T17:55:29.352Z,18.00
2022-10-19T17:57:35.822Z,13.90
2022-10-19T17:59:52.019Z,18.00
2022-10-19T18:01:55.834Z,16.92
2022-10-19T18:03:58.663Z,18.10
2022-10-19T18:06:09.624Z,19.40
2022-10-19T18:08:13.503Z,22.35
2022-10-19T18:10:16.164Z,21.33
2022-10-19T18:12:18.805Z,20.70
2022-10-19T18:14:22.726Z,19.33
2022-10-19T18:16:27.429Z,16.25
2022-10-19T18:18:31.461Z,14.95
2022-10-19T18:20:34.014Z,17.10
2022-10-19T18:22:36.629Z,15.35
2022-10-19T18:24:39.419Z,17.10
2022-10-19T18:26:42.062Z,18.50
2022-10-19T18:28:44.627Z,13.25
2022-10-19T18:30:48.718Z,10.90
2022-10-19T18:32:51.570Z,14.60
2022-10-19T18:34:55.981Z,10.63
2022-10-19T18:36:58.579Z,11.45
2022-10-19T18:39:03.200Z,13.27
2022-10-19T18:41:07.276Z,13.77
2022-10-19T18:43:09.873Z,15.90
2022-10-19T18:45:12.488Z,13.50
2022-10-19T18:47:16.495Z,11.77
2022-10-19T18:49:19.090Z,14.88
2022-10-19T18:51:23.292Z,13.10
2022-10-19T18:53:25.888Z,13.05
2022-10-19T18:55:28.858Z,13.57
2022-10-19T18:57:31.992Z,11.82
2022-10-19T18:59:34.745Z,12.35
2022-10-19T19:01:37.386Z,11.32
2022-10-19T19:03:43.515Z,11.40
2022-10-19T19:05:46.100Z,11.07
2022-10-19T19:07:48.740Z,13.68
2022-10-19T19:09:51.413Z,14.70
2022-10-19T19:11:57.738Z,12.43
2022-10-19T19:14:01.889Z,16.58
2022-10-19T19:16:04.488Z,14.40
2022-10-19T19:18:07.298Z,15.32
2022-10-19T19:20:11.709Z,13.35
2022-10-19T19:22:14.335Z,12.57
2022-10-19T19:24:20.010Z,12.55
2022-10-19T19:26:26.369Z,11.40
2022-10-19T19:28:28.984Z,11.20
2022-10-19T19:30:31.546Z,11.10
2022-10-19T19:32:35.825Z,11.48
2022-10-19T19:34:38.611Z,11.77
2022-10-19T19:36:47.303Z,13.30
2022-10-19T19:38:51.055Z,10.27
2022-10-19T19:40:53.634Z,9.95
2022-10-19T19:42:56.266Z,16.20
2022-10-19T19:44:58.834Z,12.05
2022-10-19T19:47:02.261Z,20.38
2022-10-19T19:49:05.992Z,13.45
2022-10-19T19:51:09.185Z,10.52
2022-10-19T19:53:13.226Z,10.55
2022-10-19T19:55:16.051Z,13.90
2022-10-19T19:57:18.641Z,14.30
2022-10-19T19:59:21.432Z,14.35
2022-10-19T20:01:24.675Z,13.55
2022-10-19T20:03:27.376Z,11.65
2022-10-19T20:05:29.933Z,10.48
2022-10-19T20:07:32.681Z,15.23
2022-10-19T20:09:36.853Z,12.30
2022-10-19T20:11:42.784Z,13.15
2022-10-19T20:13:46.182Z,12.63
2022-10-19T20:15:48.813Z,18.13
2022-10-19T20:17:51.379Z,11.27
2022-10-19T20:19:54.077Z,12.55
2022-10-19T20:21:58.239Z,13.45
2022-10-19T20:24:01.489Z,12.93
2022-10-19T20:26:05.907Z,13.63
2022-10-19T20:28:08.549Z,13.68
2022-10-19T20:30:12.274Z,15.45
2022-10-19T20:32:14.866Z,14.60
2022-10-19T20:34:21.731Z,14.00
2022-10-19T20:36:27.308Z,13.43
2022-10-19T20:38:29.889Z,11.90
2022-10-19T20:40:32.490Z,15.57
2022-10-19T20:42:36.836Z,15.18
2022-10-19T20:44:39.547Z,12.77
2022-10-19T20:46:42.139Z,17.23
2022-10-19T20:48:44.962Z,14.25
2022-10-19T20:50:47.587Z,14.27
2022-10-19T20:52:50.132Z,15.77
2022-10-19T20:54:52.692Z,14.85
2022-10-19T20:56:55.343Z,11.85
2022-10-19T20:59:01.062Z,15.50
2022-10-19T21:01:08.991Z,19.60
2022-10-19T21:03:11.556Z,17.60
2022-10-19T21:05:14.945Z,17.20
2022-10-19T21:07:17.578Z,16.77
2022-10-19T21:09:22.456Z,19.95
2022-10-19T21:11:27.080Z,16.25
2022-10-19T21:13:29.677Z,17.67
2022-10-19T21:15:33.591Z,20.42
2022-10-19T21:17:36.184Z,16.05
2022-10-19T21:19:38.824Z,17.17
2022-10-19T21:21:43.745Z,15.88
2022-10-19T21:23:48.093Z,17.42
2022-10-19T21:25:54.678Z,19.92
2022-10-19T21:27:57.834Z,14.30
2022-10-19T21:30:00.518Z,21.02
2022-10-19T21:32:04.876Z,18.35
2022-10-19T21:34:09.461Z,18.20
2022-10-19T21:36:14.118Z,19.70
2022-10-19T21:38:16.702Z,20.17
2022-10-19T21:40:19.287Z,16.90
2022-10-19T21:42:21.831Z,16.10
2022-10-19T21:44:24.476Z,18.13
2022-10-19T21:46:27.637Z,16.92
2022-10-19T21:48:33.760Z,21.27
2022-10-19T21:50:36.779Z,18.48
2022-10-19T21:52:39.820Z,16.25
2022-10-19T21:54:42.364Z,15.85
2022-10-19T21:56:45.305Z,17.95
2022-10-19T21:58:48.884Z,17.20
2022-10-19T22:00:51.443Z,15.25
2022-10-19T22:02:54.075Z,14.48
2022-10-19T22:04:58.013Z,13.55
2022-10-19T22:07:01.330Z,14.88
2022-10-19T22:09:05.595Z,17.52
2022-10-19T22:11:10.446Z,16.45
2022-10-19T22:13:13.030Z,16.38
2022-10-19T22:15:15.761Z,23.52
2022-10-19T22:17:18.356Z,15.95
2022-10-19T22:19:20.945Z,16.67
2022-10-19T22:21:27.248Z,21.70
2022-10-19T22:23:29.882Z,20.20
2022-10-19T22:25:32.735Z,16.65
2022-10-19T22:27:35.304Z,17.88
2022-10-19T22:29:37.955Z,18.33
2022-10-19T22:31:40.842Z,17.90
2022-10-19T22:33:43.410Z,18.23
2022-10-19T22:35:54.114Z,19.13
2022-10-19T22:37:58.086Z,19.73
2022-10-19T22:40:00.678Z,14.48
2022-10-19T22:42:03.245Z,16.65
2022-10-19T22:44:06.311Z,14.82
2022-10-19T22:46:09.251Z,14.30
2022-10-19T22:48:11.788Z,16.15
2022-10-19T22:50:14.373Z,18.88
2022-10-19T22:52:17.198Z,20.55
2022-10-19T22:54:21.093Z,22.45
2022-10-19T22:56:23.669Z,15.63
2022-10-19T22:58:26.305Z,13.50
2022-10-19T23:00:28.857Z,14.55
2022-10-19T23:02:31.441Z,14.80
2022-10-19T23:04:34.053Z,14.27
2022-10-19T23:06:36.623Z,14.52
2022-10-19T23:08:39.654Z,20.25
2022-10-19T23:10:43.600Z,18.60
2022-10-19T23:12:49.953Z,20.95
2022-10-19T23:14:52.528Z,20.02
2022-10-19T23:16:55.076Z,18.65
2022-10-19T23:18:57.713Z,20.08
2022-10-19T23:21:01.969Z,18.25
2022-10-19T23:23:04.760Z,19.38
2022-10-19T23:25:08.375Z,15.57
2022-10-19T23:27:13.750Z,14.85
2022-10-19T23:29:16.312Z,19.55
2022-10-19T23:31:21.065Z,18.10
2022-10-19T23:33:23.621Z,16.33
2022-10-19T23:35:26.142Z,18.52
2022-10-19T23:37:28.697Z,13.00
2022-10-19T23:39:31.207Z,13.82
2022-10-19T23:41:33.869Z,21.15
2022-10-19T23:43:37.931Z,19.77
2022-10-19T23:45:40.701Z,17.77
2022-10-19T23:47:43.309Z,17.38
2022-10-19T23:49:45.929Z,23.02
2022-10-19T23:51:48.540Z,19.85
2022-10-19T23:53:52.873Z,15.27
2022-10-19T23:55:59.939Z,16.20
2022-10-19T23:58:02.477Z,17.17
